Weather History for Clermont County, Batavia, OH

Change the Weather History Date:

Friday, February 28, 2014

  Actual Average (KLUK) Record (KLUK)
Temperature  
Mean Temperature 24 °F -  
Max Temperature 37 °F 48 °F 69 °F (1972)
Min Temperature 12 °F 29 °F 9 °F (1993)
Degree Days  
Heating Degree Days 40    
Moisture  
Dew Point 5 °F    
Average Humidity 46    
Maximum Humidity 73    
Minimum Humidity 24    
Precipitation  
Precipitation 0.00 in - - ()
Sea Level Pressure  
Sea Level Pressure 30.17 in    
Wind  
Wind Speed 6 mph (ESE)    
Max Wind Speed 10 mph    
Max Gust Speed -    
Visibility 10 miles    
Events      
Averages and records for this station are not official NWS values.
T = Trace of Precipitation, MM = Missing Value Source: NWS Daily Summary

Daily Weather History Graph

Daily Weather History Graph

Search for Another Location

Airport:

Trip Planner

Search our weather history database for the weather conditions in past years. The results will help you decide how hot, cold, wet, or windy it might be!

Date:

Astronomy

Feb. 28, 2014 Rise Set
Actual Time 7:10 AM EST 6:28 PM EST
Civil Twilight 6:44 AM EST 6:55 PM EST
Nautical Twilight 6:13 AM EST 7:26 PM EST
Astronomical Twilight 5:42 AM EST 7:57 PM EST
Moon 6:24 AM EST (2/28) 6:04 PM EST (2/28)
Length of Visible Light 12h 11m
Length of Day
11h 17m
Waning Crescent, 1% of the Moon is Illuminated
Feb 28
Waning Crescent
Mar 1
New
Mar 8
First Quarter
Mar 16
Full
Mar 23
Last Quarter

Hourly Weather History & Observations

Time (EST) Temp. Windchill Dew Point Humidity Pressure Visibility Wind Dir Wind Speed Gust Speed Precip Events Conditions
12:18 AM 15.8 °F 6.1 °F 5.0 °F 62% 30.16 in 10.0 mi East 6.9 mph - N/A   Clear
12:37 AM 14.0 °F 3.9 °F 5.0 °F 67% 30.16 in 10.0 mi ENE 6.9 mph - N/A   Clear
12:57 AM 14.0 °F 6.5 °F 5.0 °F 67% 30.16 in 10.0 mi ENE 4.6 mph - N/A   Clear
1:18 AM 14.0 °F 5.1 °F 5.0 °F 67% 30.17 in 10.0 mi ENE 5.8 mph - N/A   Clear
1:37 AM 14.0 °F 6.5 °F 5.0 °F 67% 30.17 in 10.0 mi ENE 4.6 mph - N/A   Clear
1:57 AM 14.0 °F 6.5 °F 5.0 °F 67% 30.18 in 10.0 mi ENE 4.6 mph - N/A   Clear
2:18 AM 14.0 °F 8.2 °F 5.0 °F 67% 30.18 in 10.0 mi ENE 3.5 mph - N/A   Clear
2:37 AM 12.2 °F 6.1 °F 5.0 °F 73% 30.18 in 10.0 mi ENE 3.5 mph - N/A   Clear
2:57 AM 12.2 °F 4.3 °F 5.0 °F 73% 30.19 in 10.0 mi East 4.6 mph - N/A   Clear
3:18 AM 12.2 °F 6.1 °F 5.0 °F 73% 30.19 in 10.0 mi ENE 3.5 mph - N/A   Clear
3:37 AM 12.2 °F 6.1 °F 5.0 °F 73% 30.19 in 10.0 mi ENE 3.5 mph - N/A   Clear
3:57 AM 12.2 °F 6.1 °F 5.0 °F 73% 30.19 in 10.0 mi ENE 3.5 mph - N/A   Clear
4:18 AM 12.2 °F 4.3 °F 5.0 °F 73% 30.18 in 10.0 mi East 4.6 mph - N/A   Clear
4:37 AM 12.2 °F 2.9 °F 5.0 °F 73% 30.19 in 10.0 mi East 5.8 mph - N/A   Clear
4:57 AM 12.2 °F 4.3 °F 5.0 °F 73% 30.20 in 10.0 mi East 4.6 mph - N/A   Clear
5:18 AM 12.2 °F 0.7 °F 5.0 °F 73% 30.20 in 10.0 mi ESE 8.1 mph - N/A   Clear
5:37 AM 12.2 °F 1.7 °F 5.0 °F 73% 30.21 in 10.0 mi ESE 6.9 mph - N/A   Clear
5:57 AM 12.2 °F 1.7 °F 5.0 °F 73% 30.21 in 10.0 mi East 6.9 mph - N/A   Clear
6:17 AM 12.2 °F 1.7 °F 5.0 °F 73% 30.21 in 10.0 mi ESE 6.9 mph - N/A   Clear
6:37 AM 14.0 °F 3.9 °F 3.2 °F 62% 30.22 in 10.0 mi ESE 6.9 mph - N/A   Clear
6:57 AM 12.2 °F 2.9 °F 3.2 °F 67% 30.22 in 10.0 mi East 5.8 mph - N/A   Clear
7:17 AM 14.0 °F 5.1 °F 3.2 °F 62% 30.22 in 10.0 mi East 5.8 mph - N/A   Clear
7:37 AM 14.0 °F 2.0 °F 3.2 °F 62% 30.23 in 10.0 mi ESE 9.2 mph - N/A   Clear
7:57 AM 14.0 °F 5.1 °F 3.2 °F 62% 30.23 in 10.0 mi ESE 5.8 mph - N/A   Clear
8:17 AM 15.8 °F 5.1 °F 3.2 °F 58% 30.23 in 10.0 mi ESE 8.1 mph - N/A   Clear
8:37 AM 17.6 °F 5.7 °F 3.2 °F 53% 30.24 in 10.0 mi ESE 10.4 mph - N/A   Clear
8:57 AM 17.6 °F 8.2 °F 5.0 °F 58% 30.25 in 10.0 mi ESE 6.9 mph - N/A   Clear
9:17 AM 19.4 °F 10.4 °F 3.2 °F 49% 30.25 in 10.0 mi ESE 6.9 mph - N/A   Clear
9:37 AM 19.4 °F 11.5 °F 5.0 °F 54% 30.24 in 10.0 mi SE 5.8 mph - N/A   Clear
9:57 AM 21.2 °F 13.6 °F 5.0 °F 50% 30.25 in 10.0 mi SSE 5.8 mph - N/A   Clear
10:17 AM 23.0 °F 17.0 °F 5.0 °F 46% 30.25 in 10.0 mi ESE 4.6 mph - N/A   Clear
10:37 AM 23.0 °F 17.0 °F 5.0 °F 46% 30.25 in 10.0 mi ESE 4.6 mph - N/A   Clear
10:57 AM 26.6 °F 20.0 °F 5.0 °F 40% 30.25 in 10.0 mi SE 5.8 mph - N/A   Clear
11:17 AM 26.6 °F 19.1 °F 5.0 °F 40% 30.25 in 10.0 mi ESE 6.9 mph - N/A   Clear
11:37 AM 28.4 °F 20.4 °F 6.8 °F 40% 30.24 in 10.0 mi East 8.1 mph - N/A   Clear
11:51 AM 28.4 °F 19.7 °F 5.0 °F 37% 30.24 in 10.0 mi ESE 9.2 mph - N/A   Clear
12:17 PM 30.2 °F 25.4 °F 5.0 °F 34% 30.23 in 10.0 mi East 4.6 mph - N/A   Clear
12:38 PM 30.2 °F 21.9 °F 5.0 °F 34% 30.21 in 10.0 mi East 9.2 mph - N/A   Clear
12:57 PM 32.0 °F 24.8 °F 5.0 °F 32% 30.20 in 10.0 mi ESE 8.1 mph - N/A   Clear
1:17 PM 32.0 °F 25.6 °F 5.0 °F 32% 30.19 in 10.0 mi ESE 6.9 mph - N/A   Clear
1:38 PM 32.0 °F 24.8 °F 5.0 °F 32% 30.18 in 10.0 mi ESE 8.1 mph - N/A   Clear
1:57 PM 33.8 °F 27.7 °F 5.0 °F 30% 30.18 in 10.0 mi ESE 6.9 mph - N/A   Clear
2:17 PM 33.8 °F 27.0 °F 5.0 °F 30% 30.16 in 10.0 mi ESE 8.1 mph - N/A   Clear
2:37 PM 33.8 °F 30.8 °F 5.0 °F 30% 30.16 in 10.0 mi ESE 3.5 mph - N/A   Clear
2:57 PM 35.6 °F 32.8 °F 5.0 °F 28% 30.15 in 10.0 mi East 3.5 mph - N/A   Clear
3:18 PM 35.6 °F 28.0 °F 5.0 °F 28% 30.15 in 10.0 mi ESE 10.4 mph - N/A   Clear
3:37 PM 35.6 °F 30.7 °F 5.0 °F 28% 30.15 in 10.0 mi SE 5.8 mph - N/A   Scattered Clouds
3:57 PM 37.4 °F 31.4 °F 3.2 °F 24% 30.14 in 10.0 mi South 8.1 mph - N/A   Scattered Clouds
4:18 PM 37.4 °F 31.4 °F 5.0 °F 26% 30.13 in 10.0 mi SSE 8.1 mph - N/A   Clear
4:37 PM 37.4 °F 31.4 °F 5.0 °F 26% 30.12 in 10.0 mi South 8.1 mph - N/A   Clear
4:57 PM 37.4 °F 33.8 °F 5.0 °F 26% 30.11 in 10.0 mi ESE 4.6 mph - N/A   Clear
5:18 PM 37.4 °F 32.1 °F 5.0 °F 26% 30.10 in 10.0 mi SE 6.9 mph - N/A   Clear
5:34 PM 37.4 °F 32.1 °F 3.2 °F 24% 30.09 in 10.0 mi SE 6.9 mph - N/A   Clear
5:57 PM 35.6 °F 30.7 °F 5.0 °F 28% 30.08 in 10.0 mi ESE 5.8 mph - N/A   Clear
6:17 PM 35.6 °F 31.7 °F 3.2 °F 26% 30.08 in 10.0 mi ESE 4.6 mph - N/A   Clear
6:37 PM 35.6 °F 32.8 °F 5.0 °F 28% 30.08 in 10.0 mi ESE 3.5 mph - N/A   Clear
6:57 PM 35.6 °F 32.8 °F 5.0 °F 28% 30.08 in 10.0 mi SE 3.5 mph - N/A   Clear
7:18 PM 33.8 °F 30.8 °F 5.0 °F 30% 30.08 in 10.0 mi ESE 3.5 mph - N/A   Clear
7:37 PM 33.8 °F 29.6 °F 5.0 °F 30% 30.08 in 10.0 mi ESE 4.6 mph - N/A   Clear
7:58 PM 33.8 °F 30.8 °F 5.0 °F 30% 30.08 in 10.0 mi SE 3.5 mph - N/A   Clear
8:17 PM 33.8 °F 30.8 °F 5.0 °F 30% 30.08 in 10.0 mi SE 3.5 mph - N/A   Clear
8:37 PM 33.8 °F - 5.0 °F 30% 30.09 in 10.0 mi Calm Calm - N/A   Clear
8:58 PM 32.0 °F 28.7 °F 5.0 °F 32% 30.09 in 10.0 mi ESE 3.5 mph - N/A   Clear
9:17 PM 32.0 °F 28.7 °F 5.0 °F 32% 30.09 in 10.0 mi ESE 3.5 mph - N/A   Clear
9:37 PM 32.0 °F 28.7 °F 5.0 °F 32% 30.09 in 10.0 mi ESE 3.5 mph - N/A   Clear
9:58 PM 32.0 °F 28.7 °F 5.0 °F 32% 30.09 in 10.0 mi SE 3.5 mph - N/A   Clear
10:17 PM 32.0 °F 28.7 °F 6.8 °F 35% 30.10 in 10.0 mi SE 3.5 mph - N/A   Clear
10:37 PM 32.0 °F - 5.0 °F 32% 30.10 in 10.0 mi Calm Calm - N/A   Clear
10:58 PM 32.0 °F 28.7 °F 8.6 °F 38% 30.10 in 10.0 mi SE 3.5 mph - N/A   Clear
11:17 PM 32.0 °F - 8.6 °F 38% 30.10 in 10.0 mi Calm Calm - N/A   Clear
11:37 PM 32.0 °F 28.7 °F 10.4 °F 41% 30.10 in 10.0 mi SE 3.5 mph - N/A   Clear
11:58 PM 32.0 °F - 10.4 °F 41% 30.09 in 10.0 mi Calm Calm - N/A   Clear